Austwell, Texas
Current Conditions -  °F | °C
As of 2:55 AM on Friday 31 Oct 2014 (Local Time) from KPKV Reporting Station
Overcast Overcast  
Wind Chill: 21°   Ceiling: 1600
Heat Index: 21°   Visibility: 10mi
Dew Point: 20°   Wind: 5mph
Humidity: 93%   Direction: 60°ENE
Pressure: 30.08"   Gusts: NA
Location:  28.39°N, 96.84°W
Report Text: KPKV 310755Z AUTO 06004KT 10SM OVC016 21/20 A3008 RMK AO2 T02060195
Loading
Personal Weather Stations






























Interactive Weather Map
Tropical Storm Tracking
New forecast layout! Learn more

10-Day Weather Forecast

Advertisements
Track Severe Weather on mobile